Time;durP1;ratioP1;P1;durP2;ratioP2;P2;SDS_P1;SDS_P2;PMS_P1;PMS_P2;Temp;Humidity;BMP_temperature;BMP_pressure;BME280_temperature;BME280_humidity;BME280_pressure;Samples;Min_cycle;Max_cycle;Signal;HPM_P1;HPM_P2
2022/03/11 00:01:03;;;;;;;;;;;20.30;35.20;;;;;;5050582;28;20381;-47
2022/03/11 00:03:30;;;;;;;;;;;20.30;35.20;;;;;;5043105;28;19925;-44
2022/03/11 00:05:56;;;;;;;;;;;20.30;35.20;;;;;;5043372;28;19920;-47
2022/03/11 00:08:24;;;;;;;;;;;20.30;35.20;;;;;;5047231;28;19924;-48
2022/03/11 00:10:51;;;;;;;;;;;20.30;35.30;;;;;;5043779;28;19954;-45
2022/03/11 00:13:17;;;;;;;;;;;20.30;35.20;;;;;;5066724;28;19988;-45
2022/03/11 00:15:44;;;;;;;;;;;20.30;35.20;;;;;;5045711;28;19956;-46
2022/03/11 00:18:13;;;;;;;;;;;20.30;35.30;;;;;;5038031;28;19924;-50
2022/03/11 00:20:42;;;;;;;;;;;20.30;35.20;;;;;;5036805;28;20016;-49
2022/03/11 00:23:09;;;;;;;;;;;20.30;35.20;;;;;;5038527;28;19921;-47
2022/03/11 00:25:35;;;;;;;;;;;20.30;35.20;;;;;;5045172;28;19921;-46
2022/03/11 00:28:02;;;;;;;;;;;20.30;35.30;;;;;;5062861;28;19932;-47
2022/03/11 00:30:29;;;;;;;;;;;20.30;35.30;;;;;;5061707;28;20237;-48
2022/03/11 00:32:56;;;;;;;;;;;20.30;35.30;;;;;;5061023;28;20273;-51
2022/03/11 00:35:24;;;;;;;;;;;20.30;35.30;;;;;;5046287;28;19929;-47
2022/03/11 00:37:52;;;;;;;;;;;20.30;35.30;;;;;;5052929;28;19928;-46
2022/03/11 00:40:19;;;;;;;;;;;20.30;35.30;;;;;;5041834;28;19920;-46
2022/03/11 00:42:46;;;;;;;;;;;20.30;35.30;;;;;;5033147;28;20368;-47
2022/03/11 00:45:12;;;;;;;;;;;20.30;35.30;;;;;;5038572;28;20369;-46
2022/03/11 00:47:39;;;;;;;;;;;20.30;35.30;;;;;;5052471;28;20011;-45
2022/03/11 00:50:06;;;;;;;;;;;20.30;35.30;;;;;;5037668;28;20382;-46
2022/03/11 00:52:34;;;;;;;;;;;20.30;35.30;;;;;;5051365;28;19925;-51
2022/03/11 00:55:02;;;;;;;;;;;20.30;35.30;;;;;;5047516;28;20043;-48
2022/03/11 00:57:29;;;;;;;;;;;20.30;35.30;;;;;;5047008;28;19921;-50
2022/03/11 00:59:56;;;;;;;;;;;20.30;35.30;;;;;;5046520;28;20306;-48
2022/03/11 01:02:22;;;;;;;;;;;20.30;35.30;;;;;;5034637;28;19928;-51
2022/03/11 01:04:50;;;;;;;;;;;20.30;35.30;;;;;;5045851;28;19920;-48
2022/03/11 01:07:17;;;;;;;;;;;20.30;35.30;;;;;;5052234;28;19999;-43
2022/03/11 01:09:45;;;;;;;;;;;20.30;35.30;;;;;;5046560;28;19956;-49
2022/03/11 01:12:12;;;;;;;;;;;20.30;35.30;;;;;;5053154;28;20341;-49
2022/03/11 01:14:39;;;;;;;;;;;20.30;35.30;;;;;;5038272;28;19933;-46
2022/03/11 01:17:06;;;;;;;;;;;20.30;35.30;;;;;;5064427;28;19925;-46
2022/03/11 01:19:33;;;;;;;;;;;20.30;35.20;;;;;;5054550;28;20057;-46
2022/03/11 01:21:59;;;;;;;;;;;20.30;35.20;;;;;;5070930;28;20381;-44
2022/03/11 01:24:26;;;;;;;;;;;20.20;35.10;;;;;;5057729;28;19967;-51
2022/03/11 01:26:55;;;;;;;;;;;20.30;35.20;;;;;;5069656;28;19924;-46
2022/03/11 01:29:22;;;;;;;;;;;20.20;35.10;;;;;;5051224;28;20421;-48
2022/03/11 01:31:49;;;;;;;;;;;20.20;35.10;;;;;;5048562;28;19924;-45
2022/03/11 01:34:15;;;;;;;;;;;20.20;35.10;;;;;;5047531;28;20365;-46
2022/03/11 01:36:42;;;;;;;;;;;20.20;35.10;;;;;;5056831;28;20376;-45
2022/03/11 01:39:09;;;;;;;;;;;20.20;35.00;;;;;;5040094;28;19927;-47
2022/03/11 01:41:36;;;;;;;;;;;20.20;35.00;;;;;;5042734;28;19921;-47
2022/03/11 01:44:06;;;;;;;;;;;20.20;35.00;;;;;;5046897;28;19927;-47
2022/03/11 01:46:32;;;;;;;;;;;20.20;35.00;;;;;;5069124;28;19928;-50
2022/03/11 01:49:00;;;;;;;;;;;20.20;35.00;;;;;;5066926;28;19920;-48
2022/03/11 01:51:28;;;;;;;;;;;20.20;35.00;;;;;;5055963;28;19927;-49
2022/03/11 01:53:55;;;;;;;;;;;20.20;34.90;;;;;;5054965;28;19966;-47
2022/03/11 01:56:23;;;;;;;;;;;20.20;34.90;;;;;;5047383;28;19925;-44
2022/03/11 01:58:50;;;;;;;;;;;20.20;34.90;;;;;;5070767;28;19963;-45
2022/03/11 02:01:19;;;;;;;;;;;20.20;34.90;;;;;;5046924;28;19924;-49
2022/03/11 02:03:46;;;;;;;;;;;20.20;34.90;;;;;;5051287;28;19921;-49
2022/03/11 02:06:13;;;;;;;;;;;20.20;34.80;;;;;;5040572;28;20023;-47
2022/03/11 02:08:40;;;;;;;;;;;20.20;34.80;;;;;;5040882;28;20321;-46
2022/03/11 02:11:06;;;;;;;;;;;20.20;34.80;;;;;;5063414;28;19921;-47
2022/03/11 02:13:43;;;;;;;;;;;20.20;34.80;;;;;;5047721;28;20369;-49
2022/03/11 02:16:13;;;;;;;;;;;20.20;34.70;;;;;;5062298;28;20652;-45
2022/03/11 02:18:41;;;;;;;;;;;20.20;34.70;;;;;;5060742;28;19921;-46
2022/03/11 02:21:09;;;;;;;;;;;20.20;34.70;;;;;;5051838;28;20388;-44
2022/03/11 02:23:40;;;;;;;;;;;20.20;34.70;;;;;;5043281;28;19967;-46
2022/03/11 02:26:07;;;;;;;;;;;20.20;34.70;;;;;;5069308;28;19921;-46
2022/03/11 02:28:33;;;;;;;;;;;20.20;34.70;;;;;;5045248;28;19925;-49
2022/03/11 02:31:01;;;;;;;;;;;20.20;34.60;;;;;;5046502;28;19920;-49
2022/03/11 02:33:27;;;;;;;;;;;20.20;34.60;;;;;;5041613;28;19932;-43
2022/03/11 02:35:54;;;;;;;;;;;20.20;34.60;;;;;;5041936;28;19928;-45
2022/03/11 02:38:21;;;;;;;;;;;20.20;34.60;;;;;;5041889;28;19924;-45
2022/03/11 02:40:49;;;;;;;;;;;20.20;34.60;;;;;;5048493;28;20365;-43
2022/03/11 02:43:17;;;;;;;;;;;20.20;34.50;;;;;;5073489;28;19920;-45
2022/03/11 02:45:44;;;;;;;;;;;20.20;34.50;;;;;;5071773;28;20400;-50
2022/03/11 02:48:10;;;;;;;;;;;20.20;34.50;;;;;;5055279;28;19928;-50
2022/03/11 02:50:37;;;;;;;;;;;20.20;34.50;;;;;;5047279;28;19949;-46
2022/03/11 02:53:04;;;;;;;;;;;20.20;34.50;;;;;;5043079;28;19921;-46
2022/03/11 02:55:30;;;;;;;;;;;20.20;34.50;;;;;;5035363;28;19947;-49
2022/03/11 02:58:00;;;;;;;;;;;20.20;34.50;;;;;;5035885;28;19928;-45
2022/03/11 03:00:27;;;;;;;;;;;20.20;34.50;;;;;;5053952;28;20366;-48
2022/03/11 03:02:54;;;;;;;;;;;20.20;34.50;;;;;;5036412;28;19921;-47
2022/03/11 03:05:21;;;;;;;;;;;20.10;34.90;;;;;;5051836;28;19932;-50
2022/03/11 03:07:47;;;;;;;;;;;20.10;34.30;;;;;;5054920;28;19978;-47
2022/03/11 03:10:14;;;;;;;;;;;20.20;34.40;;;;;;5049464;28;19920;-44
2022/03/11 03:12:41;;;;;;;;;;;20.10;34.30;;;;;;5046764;28;20332;-48
2022/03/11 03:15:09;;;;;;;;;;;20.20;34.40;;;;;;5053041;28;19993;-45
2022/03/11 03:17:38;;;;;;;;;;;20.10;34.20;;;;;;5051162;28;19935;-49
2022/03/11 03:20:07;;;;;;;;;;;20.10;34.20;;;;;;5066699;28;20566;-45
2022/03/11 03:22:34;;;;;;;;;;;20.20;34.30;;;;;;5049504;28;19921;-46
2022/03/11 03:25:01;;;;;;;;;;;20.10;34.20;;;;;;5042386;28;19920;-46
2022/03/11 03:27:32;;;;;;;;;;;20.10;34.20;;;;;;5035968;28;19982;-44
2022/03/11 03:29:59;;;;;;;;;;;20.10;34.20;;;;;;5045166;28;20013;-46
2022/03/11 03:32:27;;;;;;;;;;;20.10;34.20;;;;;;5040235;28;20004;-45
2022/03/11 03:34:53;;;;;;;;;;;20.10;34.10;;;;;;5061380;28;19921;-45
2022/03/11 03:37:20;;;;;;;;;;;20.10;34.10;;;;;;5051316;28;20297;-44
2022/03/11 03:39:50;;;;;;;;;;;20.10;34.10;;;;;;5054396;28;20357;-45
2022/03/11 03:42:16;;;;;;;;;;;20.10;34.10;;;;;;5063603;28;19926;-46
2022/03/11 03:44:43;;;;;;;;;;;20.10;34.10;;;;;;5047533;28;19963;-45
2022/03/11 03:47:11;;;;;;;;;;;20.10;34.10;;;;;;5039497;28;19990;-45
2022/03/11 03:49:40;;;;;;;;;;;20.10;34.00;;;;;;5055353;28;19928;-44
2022/03/11 03:52:11;;;;;;;;;;;20.10;34.00;;;;;;5067565;28;19994;-46
2022/03/11 03:54:38;;;;;;;;;;;20.10;34.00;;;;;;5048083;28;19952;-47
2022/03/11 03:57:05;;;;;;;;;;;20.10;34.00;;;;;;5050461;28;19920;-43
2022/03/11 03:59:32;;;;;;;;;;;20.10;33.90;;;;;;5047808;28;19925;-49
2022/03/11 04:01:59;;;;;;;;;;;20.10;33.90;;;;;;5053399;28;19928;-47
2022/03/11 04:04:25;;;;;;;;;;;20.10;33.90;;;;;;5047438;28;19921;-45
2022/03/11 04:06:53;;;;;;;;;;;20.10;33.90;;;;;;5048204;28;19959;-47
2022/03/11 04:09:22;;;;;;;;;;;20.10;33.90;;;;;;5046769;28;19925;-46
2022/03/11 04:11:50;;;;;;;;;;;20.10;33.90;;;;;;5050050;28;19927;-44
2022/03/11 04:14:17;;;;;;;;;;;20.10;33.90;;;;;;5038042;28;19927;-44
2022/03/11 04:16:44;;;;;;;;;;;20.10;33.80;;;;;;5047164;28;19920;-49
2022/03/11 04:19:10;;;;;;;;;;;20.10;33.90;;;;;;5053035;28;19921;-46
2022/03/11 04:21:37;;;;;;;;;;;20.10;33.80;;;;;;5051228;28;19968;-44
2022/03/11 04:24:13;;;;;;;;;;;20.10;33.80;;;;;;5038588;28;20015;-49
2022/03/11 04:26:40;;;;;;;;;;;20.10;33.80;;;;;;5043217;28;19971;-44
2022/03/11 04:29:07;;;;;;;;;;;20.10;33.80;;;;;;5065915;28;19978;-46
2022/03/11 04:31:33;;;;;;;;;;;20.10;33.80;;;;;;5064848;28;19920;-46
2022/03/11 04:34:00;;;;;;;;;;;20.10;33.80;;;;;;5047361;28;20370;-50
2022/03/11 04:36:28;;;;;;;;;;;20.10;33.80;;;;;;5051761;28;20329;-50
2022/03/11 04:38:57;;;;;;;;;;;20.10;33.70;;;;;;5045476;28;20312;-50
2022/03/11 04:41:25;;;;;;;;;;;20.10;33.70;;;;;;5049695;28;19927;-49
2022/03/11 04:43:52;;;;;;;;;;;20.10;33.70;;;;;;5050385;28;19921;-44
2022/03/11 04:46:18;;;;;;;;;;;20.00;33.60;;;;;;5062495;28;19928;-46
2022/03/11 04:48:47;;;;;;;;;;;20.10;33.70;;;;;;5052926;28;19927;-50
2022/03/11 04:51:14;;;;;;;;;;;20.00;33.60;;;;;;5054897;28;19964;-45
2022/03/11 04:53:41;;;;;;;;;;;20.00;33.60;;;;;;5040690;28;19928;-46
2022/03/11 04:56:07;;;;;;;;;;;20.00;33.50;;;;;;5071811;28;19920;-48
2022/03/11 04:58:35;;;;;;;;;;;20.00;33.50;;;;;;5046871;28;20290;-45
2022/03/11 05:01:02;;;;;;;;;;;20.00;33.50;;;;;;5039100;28;19924;-50
2022/03/11 05:03:32;;;;;;;;;;;20.10;33.60;;;;;;5066460;28;19943;-43
2022/03/11 05:05:58;;;;;;;;;;;20.00;33.50;;;;;;5052142;28;20254;-48
2022/03/11 05:08:25;;;;;;;;;;;20.00;33.50;;;;;;5053766;28;19939;-46
2022/03/11 05:10:52;;;;;;;;;;;20.00;33.50;;;;;;5043415;28;19931;-47
2022/03/11 05:13:19;;;;;;;;;;;20.00;33.50;;;;;;5071615;28;19966;-49
2022/03/11 05:15:47;;;;;;;;;;;20.00;33.50;;;;;;5040288;28;19931;-46
2022/03/11 05:18:14;;;;;;;;;;;20.00;33.50;;;;;;5040381;28;20007;-46
2022/03/11 05:20:40;;;;;;;;;;;20.00;33.40;;;;;;5046040;28;19936;-47
2022/03/11 05:23:07;;;;;;;;;;;20.00;33.40;;;;;;5052342;28;20366;-47
2022/03/11 05:25:34;;;;;;;;;;;20.00;33.40;;;;;;5051706;28;19927;-43
2022/03/11 05:28:01;;;;;;;;;;;20.00;33.40;;;;;;5057676;28;19925;-46
2022/03/11 05:30:28;;;;;;;;;;;20.00;33.40;;;;;;5048844;28;20709;-43
2022/03/11 05:32:56;;;;;;;;;;;20.00;33.40;;;;;;5041403;28;19925;-47
2022/03/11 05:35:22;;;;;;;;;;;20.00;33.40;;;;;;5045654;28;19920;-43
2022/03/11 05:37:51;;;;;;;;;;;20.00;33.40;;;;;;5043883;28;20015;-44
2022/03/11 05:40:18;;;;;;;;;;;20.00;33.50;;;;;;5025796;28;19924;-44
2022/03/11 05:42:45;;;;;;;;;;;20.10;33.50;;;;;;5062368;28;19967;-46
2022/03/11 05:45:12;;;;;;;;;;;20.00;33.50;;;;;;5042848;28;20364;-49
2022/03/11 05:47:39;;;;;;;;;;;20.00;33.50;;;;;;5045614;28;20015;-44
2022/03/11 05:50:07;;;;;;;;;;;20.10;33.60;;;;;;5061957;28;20008;-43
2022/03/11 05:52:36;;;;;;;;;;;20.00;33.50;;;;;;5044891;28;19921;-46
2022/03/11 05:55:03;;;;;;;;;;;20.10;33.60;;;;;;5046780;28;19920;-46
2022/03/11 05:57:30;;;;;;;;;;;20.10;33.50;;;;;;5042716;28;20044;-46
2022/03/11 05:59:57;;;;;;;;;;;20.10;33.50;;;;;;5047154;28;19921;-49
2022/03/11 06:02:27;;;;;;;;;;;20.10;33.50;;;;;;5043896;28;19921;-45
2022/03/11 06:04:53;;;;;;;;;;;20.10;33.50;;;;;;5063105;28;20453;-47
2022/03/11 06:07:21;;;;;;;;;;;20.10;33.50;;;;;;5043844;28;19920;-48
2022/03/11 06:09:48;;;;;;;;;;;20.10;33.50;;;;;;5064897;28;19927;-45
2022/03/11 06:12:15;;;;;;;;;;;20.10;33.50;;;;;;5062579;28;19921;-46
2022/03/11 06:14:42;;;;;;;;;;;20.10;33.30;;;;;;5043498;28;20388;-46
2022/03/11 06:17:09;;;;;;;;;;;20.10;33.30;;;;;;5051261;28;20054;-48
2022/03/11 06:19:35;;;;;;;;;;;20.10;33.30;;;;;;5069800;28;19920;-46
2022/03/11 06:22:02;;;;;;;;;;;20.10;33.30;;;;;;5044893;28;19996;-46
2022/03/11 06:24:33;;;;;;;;;;;20.10;33.20;;;;;;5070426;28;19970;-47
2022/03/11 06:27:00;;;;;;;;;;;20.10;33.20;;;;;;5069782;28;19927;-46
2022/03/11 06:29:26;;;;;;;;;;;20.10;33.20;;;;;;5067114;28;20207;-44
2022/03/11 06:31:53;;;;;;;;;;;20.00;33.10;;;;;;5042746;28;20495;-46
2022/03/11 06:34:20;;;;;;;;;;;20.00;33.70;;;;;;5049151;28;20011;-43
2022/03/11 06:36:47;;;;;;;;;;;20.10;33.20;;;;;;5044346;28;20002;-43
2022/03/11 06:39:14;;;;;;;;;;;20.10;33.20;;;;;;5055431;28;19928;-44
2022/03/11 06:41:43;;;;;;;;;;;20.00;33.60;;;;;;5044027;28;19964;-46
2022/03/11 06:44:09;;;;;;;;;;;20.10;33.10;;;;;;5063902;28;19921;-46
2022/03/11 06:46:36;;;;;;;;;;;20.00;33.00;;;;;;5039820;28;19936;-43
2022/03/11 06:49:03;;;;;;;;;;;20.00;33.00;;;;;;5052517;28;19974;-43
2022/03/11 06:51:30;;;;;;;;;;;20.00;32.90;;;;;;5041221;28;20289;-44
2022/03/11 06:53:57;;;;;;;;;;;20.00;32.90;;;;;;5053836;28;19926;-43
2022/03/11 06:56:23;;;;;;;;;;;20.00;32.90;;;;;;5054915;28;19920;-43
2022/03/11 06:58:51;;;;;;;;;;;20.00;32.90;;;;;;5054603;28;20366;-44
2022/03/11 07:01:18;;;;;;;;;;;20.00;32.90;;;;;;5066223;28;20173;-43
2022/03/11 07:03:45;;;;;;;;;;;20.00;32.90;;;;;;5049999;28;20359;-48
2022/03/11 07:06:11;;;;;;;;;;;20.00;32.90;;;;;;5056904;28;19920;-43
2022/03/11 07:08:38;;;;;;;;;;;20.00;32.80;;;;;;5044661;28;20312;-43
2022/03/11 07:11:05;;;;;;;;;;;20.00;32.90;;;;;;5046614;28;20012;-45
2022/03/11 07:13:32;;;;;;;;;;;20.00;32.90;;;;;;5060692;28;20377;-46
2022/03/11 07:16:00;;;;;;;;;;;20.00;32.90;;;;;;5063170;28;20446;-43
2022/03/11 07:18:27;;;;;;;;;;;20.00;32.90;;;;;;5067483;28;20109;-48
2022/03/11 07:20:54;;;;;;;;;;;20.00;32.80;;;;;;5060881;28;19920;-46
2022/03/11 07:23:21;;;;;;;;;;;20.00;32.20;;;;;;5049670;28;19936;-44
2022/03/11 07:25:48;;;;;;;;;;;20.00;31.90;;;;;;5041451;28;20038;-46
2022/03/11 07:28:14;;;;;;;;;;;20.00;32.00;;;;;;5058357;28;19928;-43
2022/03/11 07:30:41;;;;;;;;;;;20.00;32.20;;;;;;5058834;28;19990;-43
2022/03/11 07:33:11;;;;;;;;;;;20.00;32.20;;;;;;5041676;28;19967;-47
2022/03/11 07:35:38;;;;;;;;;;;20.00;32.30;;;;;;5038052;28;20297;-44
2022/03/11 07:38:05;;;;;;;;;;;20.00;32.40;;;;;;5050719;28;19963;-47
2022/03/11 07:40:31;;;;;;;;;;;20.00;32.50;;;;;;5041591;28;19975;-43
2022/03/11 07:42:58;;;;;;;;;;;20.00;32.50;;;;;;5061405;28;19932;-46
2022/03/11 07:45:25;;;;;;;;;;;20.00;32.60;;;;;;5038550;28;20358;-46
2022/03/11 07:47:52;;;;;;;;;;;20.00;32.70;;;;;;5059552;28;20019;-47
2022/03/11 07:50:20;;;;;;;;;;;20.00;32.70;;;;;;5045864;28;19944;-43
2022/03/11 07:52:47;;;;;;;;;;;20.00;32.70;;;;;;5039479;28;19920;-45
2022/03/11 07:55:14;;;;;;;;;;;20.10;32.90;;;;;;5042995;28;19943;-47
2022/03/11 07:57:40;;;;;;;;;;;20.10;32.90;;;;;;5056436;28;20235;-47
2022/03/11 08:00:09;;;;;;;;;;;20.10;32.90;;;;;;5044846;28;19978;-43
2022/03/11 08:02:36;;;;;;;;;;;20.10;32.90;;;;;;5041904;28;19970;-43
2022/03/11 08:05:03;;;;;;;;;;;20.10;33.00;;;;;;5040162;28;20365;-43
2022/03/11 08:07:32;;;;;;;;;;;20.10;33.00;;;;;;5040746;28;19947;-43
2022/03/11 08:09:58;;;;;;;;;;;20.10;33.10;;;;;;5040376;28;19924;-45
2022/03/11 08:12:25;;;;;;;;;;;20.10;33.10;;;;;;5042547;28;19951;-43
2022/03/11 08:14:52;;;;;;;;;;;20.10;33.10;;;;;;5042559;28;19921;-44
2022/03/11 08:17:19;;;;;;;;;;;20.10;33.10;;;;;;5039915;28;20186;-44
2022/03/11 08:19:45;;;;;;;;;;;20.10;33.10;;;;;;5038481;28;19956;-46
2022/03/11 08:22:12;;;;;;;;;;;20.10;33.20;;;;;;5054604;28;19964;-43
2022/03/11 08:24:40;;;;;;;;;;;20.10;33.20;;;;;;5041138;28;20016;-48
2022/03/11 08:27:07;;;;;;;;;;;20.10;33.20;;;;;;5042137;28;19925;-45
2022/03/11 08:29:34;;;;;;;;;;;20.10;33.20;;;;;;5043142;28;19921;-43
2022/03/11 08:32:04;;;;;;;;;;;20.20;33.30;;;;;;5041795;28;19925;-45
2022/03/11 08:34:31;;;;;;;;;;;20.10;33.20;;;;;;5057222;28;19924;-47
2022/03/11 08:37:04;;;;;;;;;;;20.10;33.20;;;;;;5043287;28;19991;-46
2022/03/11 08:39:30;;;;;;;;;;;20.20;33.30;;;;;;5058216;28;19929;-45
2022/03/11 08:41:59;;;;;;;;;;;20.20;33.40;;;;;;5041723;28;19955;-46
2022/03/11 08:44:26;;;;;;;;;;;20.20;33.40;;;;;;5042237;28;19944;-45
2022/03/11 08:46:52;;;;;;;;;;;20.20;33.40;;;;;;5043964;28;20393;-44
2022/03/11 08:49:19;;;;;;;;;;;20.20;33.40;;;;;;5041668;28;20053;-49
2022/03/11 08:51:46;;;;;;;;;;;20.20;33.40;;;;;;5043371;28;19943;-45
2022/03/11 08:54:12;;;;;;;;;;;20.20;33.40;;;;;;5046857;28;20464;-46
2022/03/11 08:56:40;;;;;;;;;;;20.20;33.40;;;;;;5069563;28;20247;-46
2022/03/11 08:59:08;;;;;;;;;;;20.20;33.40;;;;;;5040746;28;20347;-45
2022/03/11 09:01:35;;;;;;;;;;;20.20;33.50;;;;;;5060057;28;20106;-46
2022/03/11 09:04:02;;;;;;;;;;;20.20;33.50;;;;;;5042267;28;19952;-48
2022/03/11 09:06:30;;;;;;;;;;;20.20;33.50;;;;;;5061022;28;19942;-50
2022/03/11 09:08:57;;;;;;;;;;;20.20;33.50;;;;;;5043998;28;19955;-43
2022/03/11 09:11:24;;;;;;;;;;;20.20;33.50;;;;;;5040995;28;19947;-43
2022/03/11 09:13:50;;;;;;;;;;;20.20;33.80;;;;;;5038290;28;20679;-45
2022/03/11 09:16:18;;;;;;;;;;;20.20;33.60;;;;;;5044678;28;19989;-48
2022/03/11 09:18:45;;;;;;;;;;;20.20;33.50;;;;;;5058075;28;19975;-48
2022/03/11 09:21:12;;;;;;;;;;;20.20;33.50;;;;;;5049228;28;19920;-43
2022/03/11 09:23:39;;;;;;;;;;;20.20;33.60;;;;;;5043216;28;19983;-47
2022/03/11 09:26:05;;;;;;;;;;;20.30;33.60;;;;;;5062930;28;19921;-43
2022/03/11 09:28:32;;;;;;;;;;;20.20;33.60;;;;;;5058705;28;20446;-43
2022/03/11 09:31:00;;;;;;;;;;;20.30;33.60;;;;;;5045877;28;20038;-45
2022/03/11 09:33:29;;;;;;;;;;;20.30;33.60;;;;;;5042355;28;20696;-46
2022/03/11 09:35:55;;;;;;;;;;;20.30;33.60;;;;;;5062467;28;19978;-43
2022/03/11 09:38:22;;;;;;;;;;;20.30;33.70;;;;;;5048791;28;19924;-43
2022/03/11 09:40:49;;;;;;;;;;;20.30;33.70;;;;;;5049448;28;20245;-45
2022/03/11 09:43:16;;;;;;;;;;;20.30;33.70;;;;;;5059721;28;19964;-45
2022/03/11 09:45:43;;;;;;;;;;;20.30;33.70;;;;;;5039112;28;19921;-47
2022/03/11 09:48:09;;;;;;;;;;;20.30;33.80;;;;;;5068976;28;20028;-43
2022/03/11 09:50:38;;;;;;;;;;;20.30;33.80;;;;;;5048231;28;19943;-51
2022/03/11 09:53:05;;;;;;;;;;;20.30;33.80;;;;;;5047626;28;20262;-43
2022/03/11 09:55:32;;;;;;;;;;;20.30;33.80;;;;;;5045821;28;19924;-45
2022/03/11 09:57:58;;;;;;;;;;;20.30;33.80;;;;;;5039118;28;19928;-45
2022/03/11 10:00:25;;;;;;;;;;;20.30;33.80;;;;;;5059337;28;20358;-46
2022/03/11 10:02:52;;;;;;;;;;;20.30;33.80;;;;;;5046574;28;19939;-49
2022/03/11 10:05:19;;;;;;;;;;;20.30;33.80;;;;;;5060136;28;19921;-45
2022/03/11 10:07:47;;;;;;;;;;;20.30;33.80;;;;;;5055133;28;20356;-45
2022/03/11 10:10:15;;;;;;;;;;;20.30;33.80;;;;;;5047033;28;19939;-43
2022/03/11 10:12:42;;;;;;;;;;;20.30;33.80;;;;;;5048277;28;19984;-44
2022/03/11 10:15:09;;;;;;;;;;;20.30;33.80;;;;;;5045826;28;19920;-45
2022/03/11 10:17:39;;;;;;;;;;;20.30;33.80;;;;;;5070584;28;19951;-43
2022/03/11 10:20:07;;;;;;;;;;;20.30;33.80;;;;;;5063878;28;20254;-45
2022/03/11 10:22:34;;;;;;;;;;;20.30;33.80;;;;;;5061063;28;19924;-48
2022/03/11 10:25:16;;;;;;;;;;;20.30;33.80;;;;;;5064724;28;20308;-45
2022/03/11 10:27:57;;;;;;;;;;;20.30;33.90;;;;;;5054758;28;19960;-47
2022/03/11 10:30:24;;;;;;;;;;;20.40;34.00;;;;;;5044824;28;19920;-43
2022/03/11 10:32:51;;;;;;;;;;;20.30;33.90;;;;;;5053007;28;19921;-44
2022/03/11 10:35:19;;;;;;;;;;;20.40;34.00;;;;;;5038234;28;19947;-44
2022/03/11 10:38:13;;;;;;;;;;;20.30;34.00;;;;;;5045856;28;20269;-43
2022/03/11 10:40:41;;;;;;;;;;;20.40;34.00;;;;;;4995116;28;19920;-48
2022/03/11 10:43:13;;;;;;;;;;;20.40;34.00;;;;;;5041383;28;20015;-47
2022/03/11 10:45:44;;;;;;;;;;;20.40;34.10;;;;;;5039934;28;20043;-48
2022/03/11 10:48:11;;;;;;;;;;;20.40;34.10;;;;;;5065124;28;19932;-56
2022/03/11 10:50:38;;;;;;;;;;;20.40;34.10;;;;;;5045707;28;19940;-53
2022/03/11 10:53:06;;;;;;;;;;;20.40;33.40;;;;;;5047653;28;20011;-43
2022/03/11 10:55:34;;;;;;;;;;;20.30;32.40;;;;;;5033457;28;21653;-47
2022/03/11 10:58:01;;;;;;;;;;;20.30;32.40;;;;;;5035492;28;19928;-47
2022/03/11 11:00:32;;;;;;;;;;;20.30;32.60;;;;;;5039822;28;19932;-44
2022/03/11 11:02:59;;;;;;;;;;;20.30;32.80;;;;;;5046516;28;19920;-44
2022/03/11 11:05:26;;;;;;;;;;;20.30;32.90;;;;;;5019890;28;20381;-44
2022/03/11 11:07:53;;;;;;;;;;;20.30;33.00;;;;;;5035277;28;20019;-43
2022/03/11 11:10:20;;;;;;;;;;;20.30;33.10;;;;;;5060484;28;20214;-43
2022/03/11 11:12:47;;;;;;;;;;;20.30;33.20;;;;;;5062907;28;19959;-43
2022/03/11 11:15:15;;;;;;;;;;;20.30;33.30;;;;;;5063753;28;19932;-44
2022/03/11 11:17:43;;;;;;;;;;;20.30;33.40;;;;;;5031794;28;19931;-44
2022/03/11 11:20:16;;;;;;;;;;;20.30;33.40;;;;;;5059065;28;20255;-43
2022/03/11 11:22:44;;;;;;;;;;;20.30;33.50;;;;;;5037695;28;20039;-48
2022/03/11 11:25:10;;;;;;;;;;;20.30;33.50;;;;;;5039061;28;20019;-44
2022/03/11 11:27:37;;;;;;;;;;;20.30;33.60;;;;;;5041327;28;19920;-43
2022/03/11 11:30:04;;;;;;;;;;;20.30;33.60;;;;;;5044477;28;19973;-45
2022/03/11 11:32:31;;;;;;;;;;;20.30;33.60;;;;;;5041576;28;20309;-48
2022/03/11 11:35:10;;;;;;;;;;;20.30;33.70;;;;;;5043125;28;20007;-53
2022/03/11 11:37:37;;;;;;;;;;;20.40;33.80;;;;;;5039770;28;20015;-43
2022/03/11 11:40:17;;;;;;;;;;;20.40;33.80;;;;;;5040881;28;19921;-47
2022/03/11 11:42:43;;;;;;;;;;;20.40;33.90;;;;;;5056668;28;19924;-43
2022/03/11 11:45:15;;;;;;;;;;;20.40;33.90;;;;;;5038145;28;20022;-48
2022/03/11 11:47:42;;;;;;;;;;;20.40;33.90;;;;;;5039864;28;20152;-42
2022/03/11 11:50:16;;;;;;;;;;;20.40;33.80;;;;;;5044503;28;20077;-43
2022/03/11 11:52:47;;;;;;;;;;;20.40;33.90;;;;;;5040320;28;19928;-46
2022/03/11 11:55:14;;;;;;;;;;;20.40;33.90;;;;;;5044342;28;19925;-46
2022/03/11 11:57:43;;;;;;;;;;;20.40;33.90;;;;;;5042520;28;20091;-47
2022/03/11 12:00:25;;;;;;;;;;;20.40;33.90;;;;;;5039264;28;20035;-43
2022/03/11 12:02:52;;;;;;;;;;;20.40;34.00;;;;;;5040203;28;19933;-46
2022/03/11 12:05:53;;;;;;;;;;;20.40;34.00;;;;;;5040527;28;20019;-49
2022/03/11 12:08:39;;;;;;;;;;;20.40;34.00;;;;;;5038706;28;19932;-48
2022/03/11 12:11:08;;;;;;;;;;;20.40;34.00;;;;;;5060420;28;19939;-45
2022/03/11 12:13:35;;;;;;;;;;;20.40;34.10;;;;;;5040974;28;19935;-47
2022/03/11 12:16:01;;;;;;;;;;;20.40;34.00;;;;;;5044433;28;20015;-47
2022/03/11 12:18:35;;;;;;;;;;;20.40;34.10;;;;;;5040868;28;19920;-45
2022/03/11 12:21:01;;;;;;;;;;;20.40;34.10;;;;;;5041109;28;19987;-52
2022/03/11 12:23:31;;;;;;;;;;;20.40;34.10;;;;;;5035664;28;20247;-51
2022/03/11 12:25:58;;;;;;;;;;;20.40;33.80;;;;;;5039354;28;20015;-55
2022/03/11 12:28:42;;;;;;;;;;;20.40;33.40;;;;;;5041982;28;19928;-57
2022/03/11 12:31:11;;;;;;;;;;;20.40;33.00;;;;;;5032699;28;20103;-48
2022/03/11 12:33:38;;;;;;;;;;;20.40;32.50;;;;;;5035474;28;19928;-46
2022/03/11 12:36:05;;;;;;;;;;;20.40;31.90;;;;;;5051463;28;19921;-45
2022/03/11 12:38:33;;;;;;;;;;;20.30;31.60;;;;;;5039086;28;20230;-45
2022/03/11 12:41:03;;;;;;;;;;;20.30;31.80;;;;;;5037427;28;19959;-46
2022/03/11 12:43:30;;;;;;;;;;;20.30;32.20;;;;;;5038273;28;19920;-43
2022/03/11 12:45:57;;;;;;;;;;;20.30;32.40;;;;;;5049652;28;19921;-45
2022/03/11 12:48:26;;;;;;;;;;;20.30;32.60;;;;;;5057501;28;19973;-44
2022/03/11 12:50:53;;;;;;;;;;;20.30;32.80;;;;;;5042458;28;19986;-43
2022/03/11 12:53:20;;;;;;;;;;;20.30;32.90;;;;;;5036247;28;19928;-45
2022/03/11 12:55:47;;;;;;;;;;;20.30;33.00;;;;;;5066062;28;19920;-51
2022/03/11 12:58:15;;;;;;;;;;;20.30;33.10;;;;;;5047937;28;20030;-46
2022/03/11 13:00:43;;;;;;;;;;;20.30;33.20;;;;;;5058132;28;19925;-47
2022/03/11 13:03:10;;;;;;;;;;;20.30;33.30;;;;;;5042066;28;20015;-43
2022/03/11 13:05:38;;;;;;;;;;;20.30;33.40;;;;;;5040892;28;19929;-44
2022/03/11 13:08:05;;;;;;;;;;;20.40;33.50;;;;;;5036042;28;19924;-48
2022/03/11 13:10:32;;;;;;;;;;;20.40;33.60;;;;;;5034595;28;20421;-46
2022/03/11 13:12:59;;;;;;;;;;;20.40;33.70;;;;;;5045339;28;20503;-46
2022/03/11 13:15:27;;;;;;;;;;;20.40;33.70;;;;;;5039352;28;19921;-48
2022/03/11 13:17:54;;;;;;;;;;;20.40;33.80;;;;;;5049559;28;20032;-45
2022/03/11 13:20:27;;;;;;;;;;;20.40;33.90;;;;;;5055646;28;20392;-49
2022/03/11 13:22:55;;;;;;;;;;;20.40;33.90;;;;;;5045861;28;20015;-45
2022/03/11 13:25:25;;;;;;;;;;;20.40;33.90;;;;;;5046094;28;19998;-46
2022/03/11 13:27:52;;;;;;;;;;;20.40;34.00;;;;;;5042049;28;19920;-44
2022/03/11 13:30:37;;;;;;;;;;;20.40;34.00;;;;;;5040364;28;20237;-51
2022/03/11 13:33:10;;;;;;;;;;;20.40;34.10;;;;;;5036193;28;19955;-45
2022/03/11 13:35:37;;;;;;;;;;;20.40;34.10;;;;;;5048217;28;20129;-45
2022/03/11 13:38:05;;;;;;;;;;;20.50;34.20;;;;;;5047423;28;19921;-47
2022/03/11 13:40:32;;;;;;;;;;;20.40;34.10;;;;;;5035607;28;20227;-43
2022/03/11 13:43:00;;;;;;;;;;;20.40;34.10;;;;;;5040260;28;20262;-48
2022/03/11 13:45:27;;;;;;;;;;;20.50;34.30;;;;;;5048240;28;19966;-45
2022/03/11 13:48:04;;;;;;;;;;;20.50;34.30;;;;;;5040996;28;19932;-43
2022/03/11 13:50:31;;;;;;;;;;;20.50;34.40;;;;;;5041931;28;19920;-42
2022/03/11 13:52:58;;;;;;;;;;;20.50;34.40;;;;;;5042135;28;19975;-46
2022/03/11 13:55:33;;;;;;;;;;;20.50;34.40;;;;;;5063980;28;19939;-45
2022/03/11 13:58:16;;;;;;;;;;;20.50;34.40;;;;;;5047277;28;20039;-45
2022/03/11 14:00:43;;;;;;;;;;;20.50;34.40;;;;;;5040823;28;19928;-42
2022/03/11 14:03:14;;;;;;;;;;;20.50;34.50;;;;;;5059049;28;20280;-48
2022/03/11 14:05:40;;;;;;;;;;;20.50;34.50;;;;;;5043375;28;20028;-54
2022/03/11 14:08:07;;;;;;;;;;;20.60;34.60;;;;;;5059362;28;20011;-52
2022/03/11 14:10:36;;;;;;;;;;;20.50;34.40;;;;;;5056882;28;19936;-50
2022/03/11 14:13:03;;;;;;;;;;;20.50;33.80;;;;;;5043176;28;19920;-44
2022/03/11 14:15:35;;;;;;;;;;;20.50;33.40;;;;;;5044150;28;20341;-44
2022/03/11 14:18:03;;;;;;;;;;;20.50;33.20;;;;;;5047345;28;20388;-45
2022/03/11 14:20:31;;;;;;;;;;;20.40;33.30;;;;;;5043788;28;19924;-50